Tyner, Indiana
Current Conditions -  °F | °C
As of 3:35 AM on Saturday 25 Oct 2014 (Local Time) from KOXI Reporting Station
Overcast Overcast  
Wind Chill: 56°   Ceiling: 4200
Heat Index: 56°   Visibility: 7mi
Dew Point: 51°   Wind: 6mph
Humidity: 85%   Direction: 210°SSW
Pressure: 29.92"   Gusts: NA
Location:  41.41°N, 86.4°W
Report Text: KOXI 250735Z AUTO 21005KT 7SM OVC042 13/11 A2992 RMK AO1 T01310106
Loading
Personal Weather Stations






























Interactive Weather Map
Tropical Storm Tracking
New forecast layout! Learn more

10-Day Weather Forecast

Advertisements
Track Severe Weather on mobile